Echo, Minnesota
Current Conditions -  °F | °C
As of 6:52 PM on Saturday 22 Nov 2014 (Local Time) from KGDB Reporting Station
Haze Haze  
Wind Chill: 27°   Ceiling: Unl
Heat Index: 35°   Visibility: 5mi
Dew Point: 33°   Wind: 9mph
Humidity: 94%   Direction: 120°ESE
Pressure: 29.5"   Gusts: NA
Location:  44.62°N, 95.42°W
Report Text: KGDB 230052Z AUTO 12008KT 5SM BR CLR 02/01 A2950 RMK AO2 T00150007
Loading
Personal Weather Stations






























Interactive Weather Map New forecast layout! Learn more

10-Day Weather Forecast

Advertisements
Track Severe Weather on mobile